sensor_id;sensor_type;location;lat;lon;timestamp;temperature;humidity
10042;DHT22;5061;49.068;12.058;2023-03-01T00:01:20;-0.60;99.90
10042;DHT22;5061;49.068;12.058;2023-03-01T00:04:40;-0.60;99.90
10042;DHT22;5061;49.068;12.058;2023-03-01T00:08:01;-0.60;99.90
10042;DHT22;5061;49.068;12.058;2023-03-01T00:11:26;-0.60;99.90
10042;DHT22;5061;49.068;12.058;2023-03-01T00:14:47;-0.60;99.90
10042;DHT22;5061;49.068;12.058;2023-03-01T00:18:08;-0.60;99.90
10042;DHT22;5061;49.068;12.058;2023-03-01T00:21:29;-0.60;99.90
10042;DHT22;5061;49.068;12.058;2023-03-01T00:24:49;-0.60;99.90
10042;DHT22;5061;49.068;12.058;2023-03-01T00:28:10;-0.60;99.90
10042;DHT22;5061;49.068;12.058;2023-03-01T00:31:32;-0.60;99.90
10042;DHT22;5061;49.068;12.058;2023-03-01T00:34:53;-0.50;99.90
10042;DHT22;5061;49.068;12.058;2023-03-01T00:38:16;-0.50;99.90
10042;DHT22;5061;49.068;12.058;2023-03-01T00:41:37;-0.50;99.90
10042;DHT22;5061;49.068;12.058;2023-03-01T00:44:57;-0.50;99.90
10042;DHT22;5061;49.068;12.058;2023-03-01T00:48:18;-0.50;99.90
10042;DHT22;5061;49.068;12.058;2023-03-01T00:51:39;-0.50;99.90
10042;DHT22;5061;49.068;12.058;2023-03-01T00:55:01;-0.50;99.90
10042;DHT22;5061;49.068;12.058;2023-03-01T00:58:22;-0.50;99.90
10042;DHT22;5061;49.068;12.058;2023-03-01T01:01:43;-0.50;99.90
10042;DHT22;5061;49.068;12.058;2023-03-01T01:05:04;-0.50;99.90
10042;DHT22;5061;49.068;12.058;2023-03-01T01:08:25;-0.50;99.90
10042;DHT22;5061;49.068;12.058;2023-03-01T01:11:50;-0.50;99.90
10042;DHT22;5061;49.068;12.058;2023-03-01T01:15:12;-0.50;99.90
10042;DHT22;5061;49.068;12.058;2023-03-01T01:18:34;-0.50;99.90
10042;DHT22;5061;49.068;12.058;2023-03-01T01:21:55;-0.40;99.90
10042;DHT22;5061;49.068;12.058;2023-03-01T01:25:15;-0.40;99.90
10042;DHT22;5061;49.068;12.058;2023-03-01T01:28:36;-0.40;99.90
10042;DHT22;5061;49.068;12.058;2023-03-01T01:31:57;-0.40;99.90
10042;DHT22;5061;49.068;12.058;2023-03-01T01:35:17;-0.40;99.90
10042;DHT22;5061;49.068;12.058;2023-03-01T01:38:38;-0.40;99.90
10042;DHT22;5061;49.068;12.058;2023-03-01T01:42:00;-0.40;99.90
10042;DHT22;5061;49.068;12.058;2023-03-01T01:45:26;-0.50;99.90
10042;DHT22;5061;49.068;12.058;2023-03-01T01:48:52;-0.50;99.90
10042;DHT22;5061;49.068;12.058;2023-03-01T01:55:48;-0.50;99.90
10042;DHT22;5061;49.068;12.058;2023-03-01T01:59:11;-0.60;99.90
10042;DHT22;5061;49.068;12.058;2023-03-01T02:02:32;-0.60;99.90
10042;DHT22;5061;49.068;12.058;2023-03-01T02:06:00;-0.60;99.90
10042;DHT22;5061;49.068;12.058;2023-03-01T02:09:25;-0.70;99.90
10042;DHT22;5061;49.068;12.058;2023-03-01T02:12:47;-0.70;99.90
10042;DHT22;5061;49.068;12.058;2023-03-01T02:16:12;-0.70;99.90
10042;DHT22;5061;49.068;12.058;2023-03-01T02:23:19;-0.80;99.90
10042;DHT22;5061;49.068;12.058;2023-03-01T02:26:48;-0.80;99.90
10042;DHT22;5061;49.068;12.058;2023-03-01T02:30:11;-0.80;99.90
10042;DHT22;5061;49.068;12.058;2023-03-01T02:33:34;-0.80;99.90
10042;DHT22;5061;49.068;12.058;2023-03-01T02:36:59;-0.90;99.90
10042;DHT22;5061;49.068;12.058;2023-03-01T02:40:21;-0.90;99.90
10042;DHT22;5061;49.068;12.058;2023-03-01T02:43:42;-0.90;99.90
10042;DHT22;5061;49.068;12.058;2023-03-01T02:47:03;-1.00;99.90
10042;DHT22;5061;49.068;12.058;2023-03-01T02:57:57;-1.10;99.90
10042;DHT22;5061;49.068;12.058;2023-03-01T03:01:20;-1.10;99.90
10042;DHT22;5061;49.068;12.058;2023-03-01T03:04:41;-1.10;99.90
10042;DHT22;5061;49.068;12.058;2023-03-01T03:08:03;-1.10;99.90
10042;DHT22;5061;49.068;12.058;2023-03-01T03:11:24;-1.10;99.90
10042;DHT22;5061;49.068;12.058;2023-03-01T03:14:44;-1.10;99.90
10042;DHT22;5061;49.068;12.058;2023-03-01T03:18:08;-1.10;99.90
10042;DHT22;5061;49.068;12.058;2023-03-01T03:21:29;-1.10;99.90
10042;DHT22;5061;49.068;12.058;2023-03-01T03:24:49;-1.10;99.90
10042;DHT22;5061;49.068;12.058;2023-03-01T03:28:10;-1.20;99.90
10042;DHT22;5061;49.068;12.058;2023-03-01T03:31:31;-1.20;99.90
10042;DHT22;5061;49.068;12.058;2023-03-01T03:34:51;-1.20;99.90
10042;DHT22;5061;49.068;12.058;2023-03-01T03:38:14;-1.20;99.90
10042;DHT22;5061;49.068;12.058;2023-03-01T03:41:37;-1.20;99.90
10042;DHT22;5061;49.068;12.058;2023-03-01T03:44:58;-1.20;99.90
10042;DHT22;5061;49.068;12.058;2023-03-01T03:48:19;-1.30;99.90
10042;DHT22;5061;49.068;12.058;2023-03-01T03:51:39;-1.30;99.90
10042;DHT22;5061;49.068;12.058;2023-03-01T03:55:00;-1.30;99.90
10042;DHT22;5061;49.068;12.058;2023-03-01T03:58:23;-1.30;99.90
10042;DHT22;5061;49.068;12.058;2023-03-01T04:01:44;-1.40;99.90
10042;DHT22;5061;49.068;12.058;2023-03-01T04:05:10;-1.40;99.90
10042;DHT22;5061;49.068;12.058;2023-03-01T04:08:31;-1.40;99.90
10042;DHT22;5061;49.068;12.058;2023-03-01T04:11:52;-1.40;99.90
10042;DHT22;5061;49.068;12.058;2023-03-01T04:15:13;-1.40;99.90
10042;DHT22;5061;49.068;12.058;2023-03-01T04:18:33;-1.40;99.90
10042;DHT22;5061;49.068;12.058;2023-03-01T04:21:54;-1.40;99.90
10042;DHT22;5061;49.068;12.058;2023-03-01T04:25:14;-1.40;99.90
10042;DHT22;5061;49.068;12.058;2023-03-01T04:28:38;-1.40;99.90
10042;DHT22;5061;49.068;12.058;2023-03-01T04:32:05;-1.50;99.90
10042;DHT22;5061;49.068;12.058;2023-03-01T04:35:26;-1.50;99.90
10042;DHT22;5061;49.068;12.058;2023-03-01T04:38:48;-1.50;99.90
10042;DHT22;5061;49.068;12.058;2023-03-01T04:42:09;-1.50;99.90
10042;DHT22;5061;49.068;12.058;2023-03-01T04:45:29;-1.50;99.90
10042;DHT22;5061;49.068;12.058;2023-03-01T04:48:51;-1.50;99.90
10042;DHT22;5061;49.068;12.058;2023-03-01T04:52:12;-1.60;99.90
10042;DHT22;5061;49.068;12.058;2023-03-01T04:55:33;-1.60;99.90
10042;DHT22;5061;49.068;12.058;2023-03-01T04:58:54;-1.60;99.90
10042;DHT22;5061;49.068;12.058;2023-03-01T05:02:15;-1.60;99.90
10042;DHT22;5061;49.068;12.058;2023-03-01T05:05:37;-1.60;99.90
10042;DHT22;5061;49.068;12.058;2023-03-01T05:08:58;-1.70;99.90
10042;DHT22;5061;49.068;12.058;2023-03-01T05:12:19;-1.70;99.90
10042;DHT22;5061;49.068;12.058;2023-03-01T05:15:40;-1.70;99.90
10042;DHT22;5061;49.068;12.058;2023-03-01T05:19:00;-1.70;99.90
10042;DHT22;5061;49.068;12.058;2023-03-01T05:22:21;-1.70;99.90
10042;DHT22;5061;49.068;12.058;2023-03-01T05:25:43;-1.70;99.90
10042;DHT22;5061;49.068;12.058;2023-03-01T05:29:04;-1.70;99.90
10042;DHT22;5061;49.068;12.058;2023-03-01T05:32:24;-1.70;99.90
10042;DHT22;5061;49.068;12.058;2023-03-01T05:35:45;-1.70;99.90
10042;DHT22;5061;49.068;12.058;2023-03-01T05:39:06;-1.70;99.90
10042;DHT22;5061;49.068;12.058;2023-03-01T05:42:26;-1.70;99.90
10042;DHT22;5061;49.068;12.058;2023-03-01T05:45:47;-1.70;99.90
10042;DHT22;5061;49.068;12.058;2023-03-01T05:49:07;-1.70;99.90
10042;DHT22;5061;49.068;12.058;2023-03-01T05:52:28;-1.70;99.90
10042;DHT22;5061;49.068;12.058;2023-03-01T05:55:49;-1.70;99.90
10042;DHT22;5061;49.068;12.058;2023-03-01T05:59:10;-1.80;99.90
10042;DHT22;5061;49.068;12.058;2023-03-01T06:02:31;-1.80;99.90
10042;DHT22;5061;49.068;12.058;2023-03-01T06:05:56;-1.80;99.90
10042;DHT22;5061;49.068;12.058;2023-03-01T06:09:17;-1.90;99.90
10042;DHT22;5061;49.068;12.058;2023-03-01T06:12:39;-1.80;99.90
10042;DHT22;5061;49.068;12.058;2023-03-01T06:16:00;-1.90;99.90
10042;DHT22;5061;49.068;12.058;2023-03-01T06:19:20;-1.90;99.90
10042;DHT22;5061;49.068;12.058;2023-03-01T06:22:42;-1.90;99.90
10042;DHT22;5061;49.068;12.058;2023-03-01T06:26:07;-1.90;99.90
10042;DHT22;5061;49.068;12.058;2023-03-01T06:29:28;-2.00;99.90
10042;DHT22;5061;49.068;12.058;2023-03-01T06:32:49;-2.00;99.90
10042;DHT22;5061;49.068;12.058;2023-03-01T06:36:10;-2.00;99.90
10042;DHT22;5061;49.068;12.058;2023-03-01T06:39:31;-2.00;99.90
10042;DHT22;5061;49.068;12.058;2023-03-01T06:42:52;-2.00;99.90
10042;DHT22;5061;49.068;12.058;2023-03-01T06:46:13;-2.00;99.90
10042;DHT22;5061;49.068;12.058;2023-03-01T06:49:33;-2.00;99.90
10042;DHT22;5061;49.068;12.058;2023-03-01T06:52:57;-1.90;99.90
10042;DHT22;5061;49.068;12.058;2023-03-01T06:56:18;-1.90;99.90
10042;DHT22;5061;49.068;12.058;2023-03-01T06:59:38;-1.90;99.90
10042;DHT22;5061;49.068;12.058;2023-03-01T07:03:00;-1.90;99.90
10042;DHT22;5061;49.068;12.058;2023-03-01T07:06:23;-1.90;99.90
10042;DHT22;5061;49.068;12.058;2023-03-01T07:09:48;-1.90;99.90
10042;DHT22;5061;49.068;12.058;2023-03-01T07:13:09;-1.90;99.90
10042;DHT22;5061;49.068;12.058;2023-03-01T07:16:29;-1.90;99.90
10042;DHT22;5061;49.068;12.058;2023-03-01T07:19:50;-1.90;99.90
10042;DHT22;5061;49.068;12.058;2023-03-01T07:23:10;-1.80;99.90
10042;DHT22;5061;49.068;12.058;2023-03-01T07:26:31;-1.80;99.90
10042;DHT22;5061;49.068;12.058;2023-03-01T07:29:52;-1.80;99.90
10042;DHT22;5061;49.068;12.058;2023-03-01T07:33:12;-1.80;99.90
10042;DHT22;5061;49.068;12.058;2023-03-01T07:36:33;-1.80;99.90
10042;DHT22;5061;49.068;12.058;2023-03-01T07:39:53;-1.80;99.90
10042;DHT22;5061;49.068;12.058;2023-03-01T07:43:14;-1.70;99.90
10042;DHT22;5061;49.068;12.058;2023-03-01T07:46:34;-1.70;99.90
10042;DHT22;5061;49.068;12.058;2023-03-01T07:49:55;-1.70;99.90
10042;DHT22;5061;49.068;12.058;2023-03-01T07:53:16;-1.60;99.90
10042;DHT22;5061;49.068;12.058;2023-03-01T07:56:36;-1.60;99.90
10042;DHT22;5061;49.068;12.058;2023-03-01T07:59:57;-1.60;99.90
10042;DHT22;5061;49.068;12.058;2023-03-01T08:03:17;-1.60;99.90
10042;DHT22;5061;49.068;12.058;2023-03-01T08:06:38;-1.50;99.90
10042;DHT22;5061;49.068;12.058;2023-03-01T08:09:58;-1.50;99.90
10042;DHT22;5061;49.068;12.058;2023-03-01T08:13:19;-1.50;99.90
10042;DHT22;5061;49.068;12.058;2023-03-01T08:16:42;-1.40;99.90
10042;DHT22;5061;49.068;12.058;2023-03-01T08:20:03;-1.40;99.90
10042;DHT22;5061;49.068;12.058;2023-03-01T08:23:27;-1.40;99.90
10042;DHT22;5061;49.068;12.058;2023-03-01T08:26:48;-1.30;99.90
10042;DHT22;5061;49.068;12.058;2023-03-01T08:30:09;-1.30;99.90
10042;DHT22;5061;49.068;12.058;2023-03-01T08:33:29;-1.20;99.90
10042;DHT22;5061;49.068;12.058;2023-03-01T08:36:50;-1.20;99.90
10042;DHT22;5061;49.068;12.058;2023-03-01T08:40:13;-1.10;99.90
10042;DHT22;5061;49.068;12.058;2023-03-01T08:43:33;-1.10;99.90
10042;DHT22;5061;49.068;12.058;2023-03-01T08:46:54;-1.10;99.90
10042;DHT22;5061;49.068;12.058;2023-03-01T08:50:16;-1.00;99.90
10042;DHT22;5061;49.068;12.058;2023-03-01T08:53:36;-1.00;99.90
10042;DHT22;5061;49.068;12.058;2023-03-01T08:56:57;-0.90;99.90
10042;DHT22;5061;49.068;12.058;2023-03-01T09:00:19;-0.90;99.90
10042;DHT22;5061;49.068;12.058;2023-03-01T09:03:40;-0.80;99.90
10042;DHT22;5061;49.068;12.058;2023-03-01T09:07:01;-0.80;99.90
10042;DHT22;5061;49.068;12.058;2023-03-01T09:10:22;-0.70;99.90
10042;DHT22;5061;49.068;12.058;2023-03-01T09:13:43;-0.60;99.90
10042;DHT22;5061;49.068;12.058;2023-03-01T09:17:05;-0.60;99.90
10042;DHT22;5061;49.068;12.058;2023-03-01T09:20:26;-0.50;99.90
10042;DHT22;5061;49.068;12.058;2023-03-01T09:23:48;-0.40;99.90
10042;DHT22;5061;49.068;12.058;2023-03-01T09:27:08;-0.30;99.90
10042;DHT22;5061;49.068;12.058;2023-03-01T09:30:30;-0.20;99.90
10042;DHT22;5061;49.068;12.058;2023-03-01T09:33:52;-0.20;99.90
10042;DHT22;5061;49.068;12.058;2023-03-01T09:37:13;-0.10;99.90
10042;DHT22;5061;49.068;12.058;2023-03-01T09:40:35;0.00;99.90
10042;DHT22;5061;49.068;12.058;2023-03-01T09:47:48;0.10;99.90
10042;DHT22;5061;49.068;12.058;2023-03-01T09:51:35;0.20;99.90
10042;DHT22;5061;49.068;12.058;2023-03-01T09:54:55;0.30;99.90
10042;DHT22;5061;49.068;12.058;2023-03-01T10:06:16;0.60;99.90
10042;DHT22;5061;49.068;12.058;2023-03-01T10:09:42;0.70;99.90
10042;DHT22;5061;49.068;12.058;2023-03-01T10:16:55;0.80;99.90
10042;DHT22;5061;49.068;12.058;2023-03-01T10:20:32;0.90;99.90
10042;DHT22;5061;49.068;12.058;2023-03-01T10:24:10;1.00;99.90
10042;DHT22;5061;49.068;12.058;2023-03-01T10:31:02;1.10;99.90
10042;DHT22;5061;49.068;12.058;2023-03-01T10:34:31;1.20;99.90
10042;DHT22;5061;49.068;12.058;2023-03-01T10:38:12;1.30;99.90
10042;DHT22;5061;49.068;12.058;2023-03-01T10:41:46;1.30;99.90
10042;DHT22;5061;49.068;12.058;2023-03-01T10:45:36;1.50;99.90
10042;DHT22;5061;49.068;12.058;2023-03-01T10:52:35;1.60;99.90
10042;DHT22;5061;49.068;12.058;2023-03-01T10:56:06;1.60;99.90
10042;DHT22;5061;49.068;12.058;2023-03-01T11:03:02;1.80;99.90
10042;DHT22;5061;49.068;12.058;2023-03-01T11:06:23;1.90;99.90
10042;DHT22;5061;49.068;12.058;2023-03-01T11:09:44;2.00;99.90
10042;DHT22;5061;49.068;12.058;2023-03-01T11:13:23;2.00;99.90
10042;DHT22;5061;49.068;12.058;2023-03-01T11:16:45;2.10;99.90
10042;DHT22;5061;49.068;12.058;2023-03-01T11:23:36;2.20;99.90
10042;DHT22;5061;49.068;12.058;2023-03-01T11:27:01;2.30;99.90
10042;DHT22;5061;49.068;12.058;2023-03-01T11:34:15;2.40;99.90
10042;DHT22;5061;49.068;12.058;2023-03-01T11:41:18;2.60;99.90
10042;DHT22;5061;49.068;12.058;2023-03-01T11:44:41;2.70;99.90
10042;DHT22;5061;49.068;12.058;2023-03-01T12:06:26;3.10;99.90
10042;DHT22;5061;49.068;12.058;2023-03-01T12:20:24;3.40;99.90
10042;DHT22;5061;49.068;12.058;2023-03-01T12:35:13;3.60;99.90
10042;DHT22;5061;49.068;12.058;2023-03-01T12:38:49;3.70;99.90
10042;DHT22;5061;49.068;12.058;2023-03-01T12:42:35;3.70;99.90
10042;DHT22;5061;49.068;12.058;2023-03-01T12:49:33;3.90;99.90
10042;DHT22;5061;49.068;12.058;2023-03-01T12:52:58;4.00;99.90
10042;DHT22;5061;49.068;12.058;2023-03-01T12:56:24;4.10;99.90
10042;DHT22;5061;49.068;12.058;2023-03-01T13:00:01;4.20;99.90
10042;DHT22;5061;49.068;12.058;2023-03-01T13:03:31;4.30;99.90
10042;DHT22;5061;49.068;12.058;2023-03-01T13:11:00;4.70;99.90
10042;DHT22;5061;49.068;12.058;2023-03-01T13:17:45;5.00;99.90
10042;DHT22;5061;49.068;12.058;2023-03-01T13:21:06;5.10;99.90
10042;DHT22;5061;49.068;12.058;2023-03-01T13:24:31;5.30;99.90
10042;DHT22;5061;49.068;12.058;2023-03-01T13:42:35;6.00;99.90
10042;DHT22;5061;49.068;12.058;2023-03-01T13:45:58;6.10;99.90
10042;DHT22;5061;49.068;12.058;2023-03-01T13:49:22;6.20;99.90
10042;DHT22;5061;49.068;12.058;2023-03-01T13:52:47;6.40;99.90
10042;DHT22;5061;49.068;12.058;2023-03-01T13:56:12;6.40;99.90
10042;DHT22;5061;49.068;12.058;2023-03-01T13:59:47;6.50;99.90
10042;DHT22;5061;49.068;12.058;2023-03-01T14:03:14;6.60;99.90
10042;DHT22;5061;49.068;12.058;2023-03-01T14:06:35;6.60;99.90
10042;DHT22;5061;49.068;12.058;2023-03-01T14:10:02;6.70;99.90
10042;DHT22;5061;49.068;12.058;2023-03-01T14:13:51;6.70;99.90
10042;DHT22;5061;49.068;12.058;2023-03-01T14:21:08;6.90;99.90
10042;DHT22;5061;49.068;12.058;2023-03-01T14:24:30;6.90;99.90
10042;DHT22;5061;49.068;12.058;2023-03-01T14:28:03;7.00;99.90
10042;DHT22;5061;49.068;12.058;2023-03-01T14:31:44;7.10;99.90
10042;DHT22;5061;49.068;12.058;2023-03-01T14:35:26;7.10;99.90
10042;DHT22;5061;49.068;12.058;2023-03-01T14:38:47;7.20;99.90
10042;DHT22;5061;49.068;12.058;2023-03-01T14:42:08;7.30;99.90
10042;DHT22;5061;49.068;12.058;2023-03-01T14:45:29;7.40;99.90
10042;DHT22;5061;49.068;12.058;2023-03-01T14:49:01;7.50;99.90
10042;DHT22;5061;49.068;12.058;2023-03-01T14:52:29;7.60;99.90
10042;DHT22;5061;49.068;12.058;2023-03-01T14:55:54;7.60;99.90
10042;DHT22;5061;49.068;12.058;2023-03-01T14:59:15;7.70;99.90
10042;DHT22;5061;49.068;12.058;2023-03-01T15:02:35;7.70;99.90
10042;DHT22;5061;49.068;12.058;2023-03-01T15:05:57;7.70;99.90
10042;DHT22;5061;49.068;12.058;2023-03-01T15:09:19;7.80;99.90
10042;DHT22;5061;49.068;12.058;2023-03-01T15:12:41;7.80;99.90
10042;DHT22;5061;49.068;12.058;2023-03-01T15:19:31;7.80;99.90
10042;DHT22;5061;49.068;12.058;2023-03-01T15:22:53;7.80;99.90
10042;DHT22;5061;49.068;12.058;2023-03-01T15:26:28;7.80;99.90
10042;DHT22;5061;49.068;12.058;2023-03-01T15:29:59;7.70;99.90
10042;DHT22;5061;49.068;12.058;2023-03-01T15:36:53;7.50;99.90
10042;DHT22;5061;49.068;12.058;2023-03-01T15:40:32;7.30;99.90
10042;DHT22;5061;49.068;12.058;2023-03-01T15:43:54;7.20;99.90
10042;DHT22;5061;49.068;12.058;2023-03-01T15:47:25;7.00;99.90
10042;DHT22;5061;49.068;12.058;2023-03-01T15:50:55;6.90;99.90
10042;DHT22;5061;49.068;12.058;2023-03-01T15:54:22;6.80;99.90
10042;DHT22;5061;49.068;12.058;2023-03-01T15:57:43;6.70;99.90
10042;DHT22;5061;49.068;12.058;2023-03-01T16:01:12;6.60;99.90
10042;DHT22;5061;49.068;12.058;2023-03-01T16:04:33;6.50;99.90
10042;DHT22;5061;49.068;12.058;2023-03-01T16:07:54;6.40;99.90
10042;DHT22;5061;49.068;12.058;2023-03-01T16:11:17;6.40;99.90
10042;DHT22;5061;49.068;12.058;2023-03-01T16:14:44;6.30;99.90
10042;DHT22;5061;49.068;12.058;2023-03-01T16:18:05;6.20;99.90
10042;DHT22;5061;49.068;12.058;2023-03-01T16:21:28;6.10;99.90
10042;DHT22;5061;49.068;12.058;2023-03-01T16:24:48;5.90;99.90
10042;DHT22;5061;49.068;12.058;2023-03-01T16:28:09;5.90;99.90
10042;DHT22;5061;49.068;12.058;2023-03-01T16:31:30;5.70;99.90
10042;DHT22;5061;49.068;12.058;2023-03-01T16:34:51;5.60;99.90
10042;DHT22;5061;49.068;12.058;2023-03-01T16:38:11;5.50;99.90
10042;DHT22;5061;49.068;12.058;2023-03-01T16:41:32;5.40;99.90
10042;DHT22;5061;49.068;12.058;2023-03-01T16:44:56;5.30;99.90
10042;DHT22;5061;49.068;12.058;2023-03-01T16:48:17;5.20;99.90
10042;DHT22;5061;49.068;12.058;2023-03-01T16:51:37;5.10;99.90
10042;DHT22;5061;49.068;12.058;2023-03-01T16:54:58;5.00;99.90
10042;DHT22;5061;49.068;12.058;2023-03-01T16:58:18;4.90;99.90
10042;DHT22;5061;49.068;12.058;2023-03-01T17:01:39;4.80;99.90
10042;DHT22;5061;49.068;12.058;2023-03-01T17:05:01;4.80;99.90
10042;DHT22;5061;49.068;12.058;2023-03-01T17:08:22;4.70;99.90
10042;DHT22;5061;49.068;12.058;2023-03-01T17:11:43;4.60;99.90
10042;DHT22;5061;49.068;12.058;2023-03-01T17:15:06;4.50;99.90
10042;DHT22;5061;49.068;12.058;2023-03-01T17:18:27;4.40;99.90
10042;DHT22;5061;49.068;12.058;2023-03-01T17:21:47;4.40;99.90
10042;DHT22;5061;49.068;12.058;2023-03-01T17:25:09;4.30;99.90
10042;DHT22;5061;49.068;12.058;2023-03-01T17:28:31;4.20;99.90
10042;DHT22;5061;49.068;12.058;2023-03-01T17:31:52;4.20;99.90
10042;DHT22;5061;49.068;12.058;2023-03-01T17:35:15;4.20;99.90
10042;DHT22;5061;49.068;12.058;2023-03-01T17:38:36;4.10;99.90
10042;DHT22;5061;49.068;12.058;2023-03-01T17:41:56;4.00;99.90
10042;DHT22;5061;49.068;12.058;2023-03-01T17:45:17;4.00;99.90
10042;DHT22;5061;49.068;12.058;2023-03-01T17:48:38;3.90;99.90
10042;DHT22;5061;49.068;12.058;2023-03-01T17:51:59;3.90;99.90
10042;DHT22;5061;49.068;12.058;2023-03-01T17:55:20;3.90;99.90
10042;DHT22;5061;49.068;12.058;2023-03-01T17:58:41;3.80;99.90
10042;DHT22;5061;49.068;12.058;2023-03-01T18:02:02;3.80;99.90
10042;DHT22;5061;49.068;12.058;2023-03-01T18:05:23;3.70;99.90
10042;DHT22;5061;49.068;12.058;2023-03-01T18:08:44;3.70;99.90
10042;DHT22;5061;49.068;12.058;2023-03-01T18:12:05;3.70;99.90
10042;DHT22;5061;49.068;12.058;2023-03-01T18:15:26;3.60;99.90
10042;DHT22;5061;49.068;12.058;2023-03-01T18:18:51;3.60;99.90
10042;DHT22;5061;49.068;12.058;2023-03-01T18:22:11;3.60;99.90
10042;DHT22;5061;49.068;12.058;2023-03-01T18:25:32;3.50;99.90
10042;DHT22;5061;49.068;12.058;2023-03-01T18:28:55;3.50;99.90
10042;DHT22;5061;49.068;12.058;2023-03-01T18:32:17;3.50;99.90
10042;DHT22;5061;49.068;12.058;2023-03-01T18:35:38;3.40;99.90
10042;DHT22;5061;49.068;12.058;2023-03-01T18:39:00;3.40;99.90
10042;DHT22;5061;49.068;12.058;2023-03-01T18:42:21;3.30;99.90
10042;DHT22;5061;49.068;12.058;2023-03-01T18:45:42;3.30;99.90
10042;DHT22;5061;49.068;12.058;2023-03-01T18:49:07;3.30;99.90
10042;DHT22;5061;49.068;12.058;2023-03-01T18:52:28;3.30;99.90
10042;DHT22;5061;49.068;12.058;2023-03-01T18:55:49;3.20;99.90
10042;DHT22;5061;49.068;12.058;2023-03-01T18:59:10;3.20;99.90
10042;DHT22;5061;49.068;12.058;2023-03-01T19:02:30;3.20;99.90
10042;DHT22;5061;49.068;12.058;2023-03-01T19:05:51;3.20;99.90
10042;DHT22;5061;49.068;12.058;2023-03-01T19:09:11;3.20;99.90
10042;DHT22;5061;49.068;12.058;2023-03-01T19:12:34;3.20;99.90
10042;DHT22;5061;49.068;12.058;2023-03-01T19:16:03;3.10;99.90
10042;DHT22;5061;49.068;12.058;2023-03-01T19:19:24;3.10;99.90
10042;DHT22;5061;49.068;12.058;2023-03-01T19:22:44;3.10;99.90
10042;DHT22;5061;49.068;12.058;2023-03-01T19:26:09;3.10;99.90
10042;DHT22;5061;49.068;12.058;2023-03-01T19:29:30;3.00;99.90
10042;DHT22;5061;49.068;12.058;2023-03-01T19:32:50;3.00;99.90
10042;DHT22;5061;49.068;12.058;2023-03-01T19:36:12;3.00;99.90
10042;DHT22;5061;49.068;12.058;2023-03-01T19:39:33;3.00;99.90
10042;DHT22;5061;49.068;12.058;2023-03-01T19:42:54;2.90;99.90
10042;DHT22;5061;49.068;12.058;2023-03-01T19:46:14;2.90;99.90
10042;DHT22;5061;49.068;12.058;2023-03-01T19:49:35;2.90;99.90
10042;DHT22;5061;49.068;12.058;2023-03-01T19:52:57;2.90;99.90
10042;DHT22;5061;49.068;12.058;2023-03-01T19:56:17;2.80;99.90
10042;DHT22;5061;49.068;12.058;2023-03-01T19:59:38;2.80;99.90
10042;DHT22;5061;49.068;12.058;2023-03-01T20:02:58;2.80;99.90
10042;DHT22;5061;49.068;12.058;2023-03-01T20:06:20;2.80;99.90
10042;DHT22;5061;49.068;12.058;2023-03-01T20:09:41;2.70;99.90
10042;DHT22;5061;49.068;12.058;2023-03-01T20:13:01;2.70;99.90
10042;DHT22;5061;49.068;12.058;2023-03-01T20:16:22;2.70;99.90
10042;DHT22;5061;49.068;12.058;2023-03-01T20:19:43;2.70;99.90
10042;DHT22;5061;49.068;12.058;2023-03-01T20:23:04;2.70;99.90
10042;DHT22;5061;49.068;12.058;2023-03-01T20:26:25;2.60;99.90
10042;DHT22;5061;49.068;12.058;2023-03-01T20:29:46;2.60;99.90
10042;DHT22;5061;49.068;12.058;2023-03-01T20:33:07;2.60;99.90
10042;DHT22;5061;49.068;12.058;2023-03-01T20:36:27;2.50;99.90
10042;DHT22;5061;49.068;12.058;2023-03-01T20:39:48;2.50;99.90
10042;DHT22;5061;49.068;12.058;2023-03-01T20:43:09;2.50;99.90
10042;DHT22;5061;49.068;12.058;2023-03-01T20:46:29;2.50;99.90
10042;DHT22;5061;49.068;12.058;2023-03-01T20:49:51;2.40;99.90
10042;DHT22;5061;49.068;12.058;2023-03-01T20:53:12;2.40;99.90
10042;DHT22;5061;49.068;12.058;2023-03-01T20:56:33;2.40;99.90
10042;DHT22;5061;49.068;12.058;2023-03-01T20:59:53;2.40;99.90
10042;DHT22;5061;49.068;12.058;2023-03-01T21:03:14;2.30;99.90
10042;DHT22;5061;49.068;12.058;2023-03-01T21:06:35;2.30;99.90
10042;DHT22;5061;49.068;12.058;2023-03-01T21:09:55;2.30;99.90
10042;DHT22;5061;49.068;12.058;2023-03-01T21:13:16;2.30;99.90
10042;DHT22;5061;49.068;12.058;2023-03-01T21:16:37;2.30;99.90
10042;DHT22;5061;49.068;12.058;2023-03-01T21:20:02;2.30;99.90
10042;DHT22;5061;49.068;12.058;2023-03-01T21:23:27;2.20;99.90
10042;DHT22;5061;49.068;12.058;2023-03-01T21:26:48;2.20;99.90
10042;DHT22;5061;49.068;12.058;2023-03-01T21:30:10;2.20;99.90
10042;DHT22;5061;49.068;12.058;2023-03-01T21:33:32;2.10;99.90
10042;DHT22;5061;49.068;12.058;2023-03-01T21:36:55;2.10;99.90
10042;DHT22;5061;49.068;12.058;2023-03-01T21:40:16;2.10;99.90
10042;DHT22;5061;49.068;12.058;2023-03-01T21:43:38;2.10;99.90
10042;DHT22;5061;49.068;12.058;2023-03-01T21:47:01;2.10;99.90
10042;DHT22;5061;49.068;12.058;2023-03-01T21:50:22;2.00;99.90
10042;DHT22;5061;49.068;12.058;2023-03-01T21:53:44;2.00;99.90
10042;DHT22;5061;49.068;12.058;2023-03-01T21:57:04;2.00;99.90
10042;DHT22;5061;49.068;12.058;2023-03-01T22:00:26;1.90;99.90
10042;DHT22;5061;49.068;12.058;2023-03-01T22:03:47;1.90;99.90
10042;DHT22;5061;49.068;12.058;2023-03-01T22:07:08;1.90;99.90
10042;DHT22;5061;49.068;12.058;2023-03-01T22:10:29;1.90;99.90
10042;DHT22;5061;49.068;12.058;2023-03-01T22:13:50;1.90;99.90
10042;DHT22;5061;49.068;12.058;2023-03-01T22:17:11;1.80;99.90
10042;DHT22;5061;49.068;12.058;2023-03-01T22:20:32;1.80;99.90
10042;DHT22;5061;49.068;12.058;2023-03-01T22:23:53;1.80;99.90
10042;DHT22;5061;49.068;12.058;2023-03-01T22:27:14;1.80;99.90
10042;DHT22;5061;49.068;12.058;2023-03-01T22:30:35;1.80;99.90
10042;DHT22;5061;49.068;12.058;2023-03-01T22:33:57;1.80;99.90
10042;DHT22;5061;49.068;12.058;2023-03-01T22:37:17;1.80;99.90
10042;DHT22;5061;49.068;12.058;2023-03-01T22:40:38;1.80;99.90
10042;DHT22;5061;49.068;12.058;2023-03-01T22:43:59;1.80;99.90
10042;DHT22;5061;49.068;12.058;2023-03-01T22:47:20;1.70;99.90
10042;DHT22;5061;49.068;12.058;2023-03-01T22:50:45;1.70;99.90
10042;DHT22;5061;49.068;12.058;2023-03-01T22:54:07;1.70;99.90
10042;DHT22;5061;49.068;12.058;2023-03-01T22:57:28;1.70;99.90
10042;DHT22;5061;49.068;12.058;2023-03-01T23:00:48;1.70;99.90
10042;DHT22;5061;49.068;12.058;2023-03-01T23:04:09;1.60;99.90
10042;DHT22;5061;49.068;12.058;2023-03-01T23:07:30;1.60;99.90
10042;DHT22;5061;49.068;12.058;2023-03-01T23:10:50;1.60;99.90
10042;DHT22;5061;49.068;12.058;2023-03-01T23:14:11;1.60;99.90
10042;DHT22;5061;49.068;12.058;2023-03-01T23:17:32;1.60;99.90
10042;DHT22;5061;49.068;12.058;2023-03-01T23:20:53;1.60;99.90
10042;DHT22;5061;49.068;12.058;2023-03-01T23:24:15;1.50;99.90
10042;DHT22;5061;49.068;12.058;2023-03-01T23:27:36;1.60;99.90
10042;DHT22;5061;49.068;12.058;2023-03-01T23:30:59;1.60;99.90
10042;DHT22;5061;49.068;12.058;2023-03-01T23:34:20;1.50;99.90
10042;DHT22;5061;49.068;12.058;2023-03-01T23:37:41;1.50;99.90
10042;DHT22;5061;49.068;12.058;2023-03-01T23:41:02;1.50;99.90